createdAt,value
2018-09-12T00:01:31.983Z,74.30
2018-09-12T00:04:00.437Z,74.50
2018-09-12T00:06:28.844Z,74.50
2018-09-12T00:08:57.323Z,74.50
2018-09-12T00:11:25.961Z,75.00
2018-09-12T00:13:54.390Z,74.80
2018-09-12T00:16:22.800Z,74.80
2018-09-12T00:18:51.261Z,75.40
2018-09-12T00:21:19.696Z,75.80
2018-09-12T00:23:48.183Z,75.80
2018-09-12T00:26:16.621Z,75.90
2018-09-12T00:28:45.045Z,76.50
2018-09-12T00:31:13.468Z,77.80
2018-09-12T00:33:41.903Z,77.20
2018-09-12T00:36:10.351Z,76.90
2018-09-12T00:38:38.809Z,77.00
2018-09-12T00:41:07.356Z,76.90
2018-09-12T00:43:35.814Z,76.70
2018-09-12T00:46:04.247Z,77.00
2018-09-12T00:48:32.722Z,76.80
2018-09-12T00:51:01.155Z,76.40
2018-09-12T00:53:29.587Z,76.40
2018-09-12T00:55:58.028Z,76.40
2018-09-12T00:58:26.471Z,76.20
2018-09-12T01:00:54.929Z,76.20
2018-09-12T01:03:23.479Z,75.90
2018-09-12T01:05:51.952Z,75.90
2018-09-12T01:08:20.439Z,76.10
2018-09-12T01:10:48.935Z,76.40
2018-09-12T01:13:17.364Z,76.40
2018-09-12T01:15:45.790Z,76.20
2018-09-12T01:18:18.120Z,76.90
2018-09-12T01:20:47.150Z,76.80
2018-09-12T01:23:15.731Z,77.00
2018-09-12T01:25:44.287Z,77.40
2018-09-12T01:28:12.744Z,77.40
2018-09-12T01:30:41.211Z,77.50
2018-09-12T01:33:09.635Z,77.50
2018-09-12T01:35:38.254Z,77.30
2018-09-12T01:38:06.751Z,77.30
2018-09-12T01:40:35.214Z,77.40
2018-09-12T01:43:03.768Z,77.30
2018-09-12T01:45:32.212Z,77.60
2018-09-12T01:48:00.676Z,77.70
2018-09-12T01:50:29.145Z,77.90
2018-09-12T01:52:57.563Z,77.80
2018-09-12T01:55:25.994Z,78.10
2018-09-12T01:57:54.425Z,78.30
2018-09-12T02:00:27.087Z,78.30
2018-09-12T02:02:55.550Z,78.60
2018-09-12T02:05:24.003Z,78.50
2018-09-12T02:07:52.415Z,78.80
2018-09-12T02:10:20.839Z,79.00
2018-09-12T02:12:49.242Z,79.10
2018-09-12T02:15:17.851Z,79.10
2018-09-12T02:17:46.280Z,79.00
2018-09-12T02:20:14.710Z,78.90
2018-09-12T02:22:43.130Z,78.50
2018-09-12T02:25:11.584Z,78.50
2018-09-12T02:27:40.006Z,78.70
2018-09-12T02:30:08.565Z,78.30
2018-09-12T02:32:36.994Z,78.40
2018-09-12T02:35:05.491Z,78.60
2018-09-12T02:37:34.013Z,78.40
2018-09-12T02:40:02.437Z,78.70
2018-09-12T02:42:30.956Z,78.90
2018-09-12T02:44:59.367Z,79.30
2018-09-12T02:47:33.311Z,79.20
2018-09-12T02:50:01.738Z,79.30
2018-09-12T02:52:30.172Z,79.30
2018-09-12T02:54:58.584Z,79.50
2018-09-12T02:57:26.999Z,79.60
2018-09-12T02:59:55.402Z,79.80
2018-09-12T03:02:23.866Z,80.40
2018-09-12T03:04:53.192Z,80.40
2018-09-12T03:07:21.631Z,80.40
2018-09-12T03:09:50.041Z,80.60
2018-09-12T03:12:18.475Z,81.10
2018-09-12T03:14:46.900Z,81.70
2018-09-12T03:17:15.411Z,82.10
2018-09-12T03:19:43.843Z,82.10
2018-09-12T03:22:12.295Z,82.60
2018-09-12T03:24:40.735Z,82.70
2018-09-12T03:27:09.159Z,82.50
2018-09-12T03:29:37.572Z,82.70
2018-09-12T03:32:06.173Z,82.40
2018-09-12T03:34:34.584Z,82.70
2018-09-12T03:37:03.056Z,82.70
2018-09-12T03:39:31.454Z,82.90
2018-09-12T03:41:59.863Z,83.20
2018-09-12T03:44:28.292Z,83.20
2018-09-12T03:46:56.700Z,83.90
2018-09-12T03:49:25.131Z,84.30
2018-09-12T03:51:53.547Z,84.80
2018-09-12T03:54:21.972Z,85.10
2018-09-12T03:56:50.383Z,85.70
2018-09-12T03:59:18.831Z,85.60
2018-09-12T04:01:47.243Z,85.90
2018-09-12T04:04:15.691Z,86.00
2018-09-12T04:06:44.126Z,86.00
2018-09-12T04:09:12.557Z,86.70
2018-09-12T04:11:40.962Z,86.40
2018-09-12T04:14:09.444Z,86.50
2018-09-12T04:16:37.878Z,86.20
2018-09-12T04:19:06.342Z,85.90
2018-09-12T04:21:34.778Z,85.90
2018-09-12T04:24:03.290Z,86.30
2018-09-12T04:26:31.659Z,86.70
2018-09-12T04:29:00.086Z,86.80
2018-09-12T04:31:28.515Z,86.80
2018-09-12T04:33:56.933Z,87.30
2018-09-12T04:36:25.350Z,87.30
2018-09-12T04:38:53.824Z,87.30
2018-09-12T04:41:22.256Z,87.40
2018-09-12T04:43:50.712Z,87.30
2018-09-12T04:46:19.134Z,87.30
2018-09-12T04:48:47.672Z,87.30
2018-09-12T04:51:16.230Z,87.40
2018-09-12T04:53:44.671Z,87.30
2018-09-12T04:56:13.084Z,87.70
2018-09-12T04:58:41.528Z,87.70
2018-09-12T05:01:09.958Z,87.50
2018-09-12T05:03:38.381Z,87.80
2018-09-12T05:06:06.892Z,88.00
2018-09-12T05:08:35.311Z,87.50
2018-09-12T05:11:03.751Z,87.60
2018-09-12T05:13:32.159Z,87.70
2018-09-12T05:16:00.628Z,87.70
2018-09-12T05:18:29.149Z,87.40
2018-09-12T05:20:57.574Z,87.40
2018-09-12T05:23:26.006Z,87.50
2018-09-12T05:25:54.466Z,86.90
2018-09-12T05:28:22.879Z,86.50
2018-09-12T05:30:51.466Z,86.40
2018-09-12T05:33:19.894Z,86.20
2018-09-12T05:35:48.325Z,86.20
2018-09-12T05:38:16.835Z,85.80
2018-09-12T05:40:45.277Z,85.40
2018-09-12T05:43:13.695Z,85.20
2018-09-12T05:45:42.226Z,84.70
2018-09-12T05:48:10.638Z,84.20
2018-09-12T05:50:39.084Z,83.80
2018-09-12T05:53:07.502Z,83.00
2018-09-12T05:55:35.987Z,82.40
2018-09-12T05:58:04.483Z,82.60
2018-09-12T06:00:32.942Z,82.00
2018-09-12T06:03:01.375Z,81.60
2018-09-12T06:05:29.834Z,81.70
2018-09-12T06:07:58.262Z,81.70
2018-09-12T06:10:26.683Z,81.80
2018-09-12T06:12:55.112Z,81.80
2018-09-12T06:15:23.590Z,81.10
2018-09-12T06:17:52.015Z,80.90
2018-09-12T06:20:20.506Z,81.10
2018-09-12T06:22:48.951Z,81.00
2018-09-12T06:25:17.407Z,80.30
2018-09-12T06:27:45.875Z,79.60
2018-09-12T06:30:14.319Z,79.10
2018-09-12T06:32:42.758Z,79.30
2018-09-12T06:35:11.251Z,79.10
2018-09-12T06:37:39.846Z,79.30
2018-09-12T06:40:08.303Z,78.80
2018-09-12T06:42:36.731Z,78.50
2018-09-12T06:45:05.219Z,77.80
2018-09-12T06:47:33.698Z,77.60
2018-09-12T06:50:02.139Z,77.30
2018-09-12T06:52:30.566Z,76.90
2018-09-12T06:54:58.991Z,76.50
2018-09-12T06:57:27.438Z,76.00
2018-09-12T06:59:55.851Z,75.80
2018-09-12T07:02:24.410Z,75.50
2018-09-12T07:04:52.903Z,75.30
2018-09-12T07:07:21.421Z,74.80
2018-09-12T07:09:49.871Z,74.20
2018-09-12T07:12:18.322Z,74.20
2018-09-12T07:14:46.751Z,74.40
2018-09-12T07:17:15.219Z,74.20
2018-09-12T07:19:43.648Z,73.40
2018-09-12T07:22:12.083Z,72.20
2018-09-12T07:24:40.536Z,71.80
2018-09-12T07:27:08.963Z,71.00
2018-09-12T07:29:37.383Z,70.10
2018-09-12T07:32:05.873Z,70.60
2018-09-12T07:34:34.292Z,70.20
2018-09-12T07:37:02.769Z,69.00
2018-09-12T07:39:31.191Z,69.00
2018-09-12T07:41:59.652Z,68.30
2018-09-12T07:44:28.124Z,67.30
2018-09-12T07:46:56.596Z,67.30
2018-09-12T07:49:25.059Z,67.20
2018-09-12T07:51:53.494Z,66.60
2018-09-12T07:54:21.987Z,66.20
2018-09-12T07:56:50.411Z,66.00
2018-09-12T07:59:18.872Z,66.00
2018-09-12T08:01:47.324Z,66.00
2018-09-12T08:04:15.780Z,65.00
2018-09-12T08:06:44.229Z,64.40
2018-09-12T08:09:13.567Z,64.00
2018-09-12T08:11:42.539Z,64.10
2018-09-12T08:14:11.360Z,63.70
2018-09-12T08:16:40.647Z,63.00
2018-09-12T08:19:09.132Z,63.20
2018-09-12T08:21:37.551Z,62.20
2018-09-12T08:24:05.988Z,61.00
2018-09-12T08:26:34.429Z,61.60
2018-09-12T08:29:02.896Z,60.80
2018-09-12T08:31:31.360Z,60.60
2018-09-12T08:33:59.796Z,60.20
2018-09-12T08:36:28.322Z,59.90
2018-09-12T08:38:56.778Z,59.50
2018-09-12T08:41:25.188Z,59.00
2018-09-12T08:43:53.761Z,58.70
2018-09-12T08:46:22.204Z,58.70
2018-09-12T08:48:50.655Z,58.60
2018-09-12T08:51:19.084Z,58.40
2018-09-12T08:53:47.543Z,58.40
2018-09-12T08:56:15.982Z,58.20
2018-09-12T08:58:44.610Z,57.00
2018-09-12T09:01:13.111Z,57.00
2018-09-12T09:03:41.591Z,57.20
2018-09-12T09:06:10.040Z,57.00
2018-09-12T09:08:38.583Z,56.70
2018-09-12T09:11:07.073Z,56.30
2018-09-12T09:13:35.542Z,56.20
2018-09-12T09:16:03.987Z,55.80
2018-09-12T09:18:32.436Z,55.10
2018-09-12T09:21:01.927Z,55.30
2018-09-12T09:23:30.443Z,54.50
2018-09-12T09:25:58.863Z,54.60
2018-09-12T09:28:27.318Z,54.60
2018-09-12T09:30:55.755Z,54.40
2018-09-12T09:33:24.267Z,54.00
2018-09-12T09:35:52.720Z,53.50
2018-09-12T09:38:21.155Z,53.80
2018-09-12T09:40:49.575Z,53.50
2018-09-12T09:43:17.978Z,53.30
2018-09-12T09:45:46.438Z,52.40
2018-09-12T09:48:15.199Z,51.90
2018-09-12T09:50:43.560Z,51.60
2018-09-12T09:53:12.065Z,51.70
2018-09-12T09:55:40.504Z,51.40
2018-09-12T09:58:08.921Z,51.20
2018-09-12T10:00:42.854Z,51.20
2018-09-12T10:03:16.550Z,51.20
2018-09-12T10:05:50.377Z,49.50
2018-09-12T10:08:24.067Z,48.00
2018-09-12T10:10:52.539Z,45.70
2018-09-12T10:13:20.945Z,46.20
2018-09-12T10:15:49.392Z,46.90
2018-09-12T10:18:17.827Z,46.50
2018-09-12T10:20:46.251Z,46.30
2018-09-12T10:23:14.646Z,46.40
2018-09-12T10:25:43.138Z,46.10
2018-09-12T10:28:11.651Z,46.00
2018-09-12T10:30:40.130Z,45.20
2018-09-12T10:33:08.595Z,45.30
2018-09-12T10:35:37.077Z,45.80
2018-09-12T10:38:05.607Z,45.00
2018-09-12T10:40:34.038Z,45.30
2018-09-12T10:43:02.479Z,45.10
2018-09-12T10:45:30.918Z,44.50
2018-09-12T10:47:59.335Z,44.00
2018-09-12T10:50:27.765Z,44.80
2018-09-12T10:52:56.179Z,44.40
2018-09-12T10:55:24.628Z,44.40
2018-09-12T10:57:53.053Z,44.30
2018-09-12T11:00:21.590Z,43.90
2018-09-12T11:02:50.016Z,44.00
2018-09-12T11:05:18.475Z,44.10
2018-09-12T11:07:46.899Z,43.60
2018-09-12T11:10:15.334Z,43.80
2018-09-12T11:12:44.051Z,43.80
2018-09-12T11:15:12.479Z,43.70
2018-09-12T11:17:40.925Z,43.40
2018-09-12T11:20:09.358Z,42.70
2018-09-12T11:22:37.838Z,42.50
2018-09-12T11:25:06.303Z,42.20
2018-09-12T11:27:34.735Z,43.00
2018-09-12T11:30:03.207Z,42.30
2018-09-12T11:32:31.641Z,41.80
2018-09-12T11:35:00.058Z,41.60
2018-09-12T11:37:28.517Z,40.10
2018-09-12T11:39:56.964Z,40.20
2018-09-12T11:42:25.426Z,40.30
2018-09-12T11:44:53.819Z,39.60
2018-09-12T11:47:22.587Z,38.60
2018-09-12T11:49:50.995Z,39.00
2018-09-12T11:52:19.414Z,37.80
2018-09-12T11:54:47.807Z,37.90
2018-09-12T11:57:16.227Z,37.90
2018-09-12T11:59:44.635Z,37.60
2018-09-12T12:02:13.138Z,36.80
2018-09-12T12:04:41.566Z,35.70
2018-09-12T12:07:10.081Z,34.60
2018-09-12T12:09:38.549Z,34.40
2018-09-12T12:12:07.039Z,35.50
2018-09-12T12:14:35.467Z,36.20
2018-09-12T12:17:03.920Z,36.00
2018-09-12T12:19:32.341Z,36.10
2018-09-12T12:22:00.758Z,36.90
2018-09-12T12:24:29.225Z,36.70
2018-09-12T12:26:57.638Z,36.60
2018-09-12T12:29:26.039Z,36.50
2018-09-12T12:31:54.464Z,36.50
2018-09-12T12:34:22.891Z,34.50
2018-09-12T12:36:51.288Z,34.30
2018-09-12T12:39:19.735Z,34.40
2018-09-12T12:41:48.149Z,34.60
2018-09-12T12:44:16.596Z,34.20
2018-09-12T12:46:45.011Z,34.50
2018-09-12T12:49:13.432Z,34.90
2018-09-12T12:51:41.851Z,34.90
2018-09-12T12:54:10.292Z,35.20
2018-09-12T12:56:38.695Z,35.00
2018-09-12T12:59:07.179Z,34.60
2018-09-12T13:01:35.616Z,34.90
2018-09-12T13:04:04.071Z,35.00
2018-09-12T13:06:32.543Z,35.20
2018-09-12T13:09:01.238Z,34.60
2018-09-12T13:11:29.768Z,35.10
2018-09-12T13:13:58.211Z,35.10
2018-09-12T13:16:26.705Z,35.50
2018-09-12T13:18:55.174Z,35.60
2018-09-12T13:21:23.678Z,35.40
2018-09-12T13:23:52.024Z,35.40
2018-09-12T13:26:20.434Z,35.60
2018-09-12T13:28:48.860Z,35.00
2018-09-12T13:31:17.311Z,34.90
2018-09-12T13:33:45.774Z,34.70
2018-09-12T13:36:14.198Z,34.50
2018-09-12T13:38:42.663Z,34.60
2018-09-12T13:41:11.100Z,35.00
2018-09-12T13:43:39.527Z,35.00
2018-09-12T13:46:07.967Z,35.40
2018-09-12T13:48:36.401Z,35.00
2018-09-12T13:51:04.835Z,34.90
2018-09-12T13:53:33.259Z,35.30
2018-09-12T13:56:02.684Z,34.80
2018-09-12T13:58:31.136Z,34.90
2018-09-12T14:00:59.538Z,34.90
2018-09-12T14:03:27.964Z,34.70
2018-09-12T14:05:56.376Z,34.60
2018-09-12T14:08:24.816Z,34.50
2018-09-12T14:10:53.228Z,34.90
2018-09-12T14:13:21.666Z,34.50
2018-09-12T14:15:50.162Z,34.80
2018-09-12T14:18:18.630Z,34.80
2018-09-12T14:20:47.059Z,35.40
2018-09-12T14:23:15.510Z,35.60
2018-09-12T14:25:43.927Z,35.50
2018-09-12T14:28:12.360Z,35.80
2018-09-12T14:30:40.789Z,35.90
2018-09-12T14:33:09.208Z,36.00
2018-09-12T14:35:37.650Z,35.70
2018-09-12T14:38:06.092Z,35.60
2018-09-12T14:40:34.516Z,35.80
2018-09-12T14:43:02.933Z,35.70
2018-09-12T14:45:31.523Z,35.50
2018-09-12T14:48:00.041Z,35.40
2018-09-12T14:50:28.471Z,35.60
2018-09-12T14:52:56.884Z,35.90
2018-09-12T14:55:25.317Z,35.60
2018-09-12T14:57:53.733Z,36.30
2018-09-12T15:00:30.743Z,35.30
2018-09-12T15:02:59.809Z,35.10
2018-09-12T15:05:28.250Z,35.50
2018-09-12T15:07:57.368Z,35.20
2018-09-12T15:10:26.368Z,35.60
2018-09-12T15:12:54.864Z,35.90
2018-09-12T15:15:23.294Z,35.70
2018-09-12T15:17:51.713Z,35.60
2018-09-12T15:20:20.184Z,35.80
2018-09-12T15:22:48.994Z,36.10
2018-09-12T15:25:17.419Z,36.10
2018-09-12T15:27:45.858Z,36.30
2018-09-12T15:30:14.300Z,36.10
2018-09-12T15:32:42.729Z,36.20
2018-09-12T15:35:11.180Z,36.60
2018-09-12T15:37:39.616Z,36.60
2018-09-12T15:40:08.090Z,36.80
2018-09-12T15:42:36.512Z,36.70
2018-09-12T15:45:05.019Z,37.10
2018-09-12T15:47:33.529Z,37.00
2018-09-12T15:50:01.963Z,37.10
2018-09-12T15:52:30.389Z,36.90
2018-09-12T15:54:58.827Z,36.80
2018-09-12T15:57:27.250Z,37.20
2018-09-12T15:59:55.737Z,37.20
2018-09-12T16:02:24.167Z,37.20
2018-09-12T16:04:52.564Z,37.60
2018-09-12T16:07:20.990Z,37.70
2018-09-12T16:09:49.384Z,37.50
2018-09-12T16:12:17.849Z,37.90
2018-09-12T16:14:46.270Z,38.80
2018-09-12T16:17:14.709Z,38.50
2018-09-12T16:19:43.152Z,38.80
2018-09-12T16:22:11.631Z,39.00
2018-09-12T16:24:40.113Z,39.20
2018-09-12T16:27:08.635Z,39.30
2018-09-12T16:29:37.026Z,39.50
2018-09-12T16:32:05.510Z,39.70
2018-09-12T16:34:33.915Z,39.10
2018-09-12T16:37:02.388Z,38.80
2018-09-12T16:39:30.815Z,38.90
2018-09-12T16:41:59.278Z,39.00
2018-09-12T16:44:27.698Z,39.60
2018-09-12T16:46:56.130Z,40.00
2018-09-12T16:49:24.557Z,40.00
2018-09-12T16:51:52.982Z,40.00
2018-09-12T16:54:21.411Z,39.90
2018-09-12T16:56:49.901Z,39.90
2018-09-12T16:59:18.294Z,40.70
2018-09-12T17:01:46.766Z,41.00
2018-09-12T17:04:15.235Z,41.40
2018-09-12T17:06:43.692Z,41.30
2018-09-12T17:09:12.439Z,41.60
2018-09-12T17:11:40.899Z,42.20
2018-09-12T17:14:09.332Z,42.50
2018-09-12T17:16:37.795Z,42.50
2018-09-12T17:19:06.262Z,42.90
2018-09-12T17:21:41.025Z,43.20
2018-09-12T17:24:09.450Z,43.60
2018-09-12T17:26:37.912Z,43.80
2018-09-12T17:29:06.347Z,44.20
2018-09-12T17:31:34.800Z,44.60
2018-09-12T17:34:03.275Z,45.30
2018-09-12T17:36:31.762Z,45.10
2018-09-12T17:39:00.399Z,45.20
2018-09-12T17:41:28.830Z,45.70
2018-09-12T17:43:57.253Z,45.70
2018-09-12T17:46:25.691Z,46.60
2018-09-12T17:48:54.106Z,46.30
2018-09-12T17:51:22.521Z,47.20
2018-09-12T17:53:50.999Z,47.10
2018-09-12T17:56:19.402Z,47.10
2018-09-12T17:58:47.826Z,47.10
2018-09-12T18:01:16.246Z,47.90
2018-09-12T18:03:44.692Z,47.70
2018-09-12T18:06:13.113Z,47.80
2018-09-12T18:08:41.550Z,47.70
2018-09-12T18:11:10.021Z,47.30
2018-09-12T18:13:38.471Z,48.50
2018-09-12T18:16:06.903Z,49.30
2018-09-12T18:18:35.336Z,49.70
2018-09-12T18:21:03.812Z,50.00
2018-09-12T18:23:32.582Z,51.00
2018-09-12T18:26:01.060Z,50.60
2018-09-12T18:28:29.527Z,50.60
2018-09-12T18:30:58.172Z,51.20
2018-09-12T18:33:26.646Z,50.60
2018-09-12T18:35:55.113Z,50.50
2018-09-12T18:38:23.680Z,50.50
2018-09-12T18:40:52.221Z,50.60
2018-09-12T18:43:21.651Z,51.20
2018-09-12T18:45:50.178Z,52.00
2018-09-12T18:48:18.611Z,52.10
2018-09-12T18:50:47.019Z,52.10
2018-09-12T18:53:15.440Z,53.30
2018-09-12T18:55:43.892Z,54.30
2018-09-12T18:58:12.336Z,53.90
2018-09-12T19:00:40.762Z,54.50
2018-09-12T19:03:09.208Z,53.70
2018-09-12T19:05:37.627Z,54.10
2018-09-12T19:08:06.091Z,54.10
2018-09-12T19:10:34.519Z,54.10
2018-09-12T19:13:02.927Z,54.40
2018-09-12T19:15:31.370Z,54.20
2018-09-12T19:18:00.041Z,54.10
2018-09-12T19:20:28.514Z,54.20
2018-09-12T19:22:56.919Z,54.70
2018-09-12T19:25:25.360Z,55.60
2018-09-12T19:27:53.767Z,55.60
2018-09-12T19:30:22.199Z,56.20
2018-09-12T19:32:50.615Z,55.80
2018-09-12T19:35:19.048Z,56.20
2018-09-12T19:37:47.473Z,56.40
2018-09-12T19:40:15.927Z,56.30
2018-09-12T19:42:44.347Z,56.20
2018-09-12T19:45:12.815Z,55.90
2018-09-12T19:47:41.249Z,56.40
2018-09-12T19:50:09.702Z,56.10
2018-09-12T19:52:38.126Z,56.20
2018-09-12T19:55:06.627Z,56.90
2018-09-12T19:57:35.049Z,56.80
2018-09-12T20:00:03.603Z,56.40
2018-09-12T20:02:33.518Z,56.30
2018-09-12T20:05:01.999Z,57.40
2018-09-12T20:07:31.779Z,58.20
2018-09-12T20:10:00.245Z,56.80
2018-09-12T20:12:28.660Z,57.10
2018-09-12T20:14:57.104Z,56.90
2018-09-12T20:17:25.523Z,56.90
2018-09-12T20:19:53.991Z,56.80
2018-09-12T20:22:22.432Z,57.90
2018-09-12T20:24:50.838Z,57.10
2018-09-12T20:27:19.267Z,57.70
2018-09-12T20:29:47.953Z,57.00
2018-09-12T20:32:16.555Z,56.40
2018-09-12T20:34:44.967Z,56.10
2018-09-12T20:37:14.129Z,56.20
2018-09-12T20:39:42.543Z,56.50
2018-09-12T20:42:10.971Z,56.80
2018-09-12T20:44:39.872Z,57.40
2018-09-12T20:47:08.303Z,59.70
2018-09-12T20:49:36.707Z,64.10
2018-09-12T20:52:05.141Z,68.50
2018-09-12T20:54:33.546Z,70.60
2018-09-12T20:57:02.007Z,72.00
2018-09-12T20:59:30.440Z,76.30
2018-09-12T21:01:58.914Z,78.30
2018-09-12T21:04:27.340Z,82.90
2018-09-12T21:06:55.755Z,84.00
2018-09-12T21:09:24.162Z,87.20
2018-09-12T21:11:52.604Z,86.80
2018-09-12T21:14:21.016Z,88.70
2018-09-12T21:16:49.447Z,88.80
2018-09-12T21:19:17.858Z,90.10
2018-09-12T21:21:46.309Z,90.00
2018-09-12T21:24:14.720Z,88.50
2018-09-12T21:26:43.157Z,88.40
2018-09-12T21:29:11.564Z,89.00
2018-09-12T21:31:40.002Z,88.30
2018-09-12T21:34:08.487Z,88.60
2018-09-12T21:36:36.938Z,87.60
2018-09-12T21:39:08.374Z,88.60
2018-09-12T21:41:36.864Z,88.60
2018-09-12T21:44:05.298Z,89.00
2018-09-12T21:46:33.779Z,89.30
2018-09-12T21:49:02.285Z,86.40
2018-09-12T21:51:30.720Z,86.90
2018-09-12T21:53:59.154Z,86.60
2018-09-12T21:56:27.582Z,87.40
2018-09-12T21:58:56.013Z,86.60
2018-09-12T22:01:25.251Z,86.40
2018-09-12T22:03:54.476Z,87.90
2018-09-12T22:06:23.651Z,88.20
2018-09-12T22:08:52.112Z,88.80
2018-09-12T22:11:20.931Z,89.20
2018-09-12T22:13:49.550Z,89.70
2018-09-12T22:16:17.971Z,89.90
2018-09-12T22:18:46.444Z,90.30
2018-09-12T22:21:14.879Z,90.20
2018-09-12T22:23:43.307Z,90.70
2018-09-12T22:26:11.720Z,90.40
2018-09-12T22:28:40.483Z,90.60
2018-09-12T22:31:08.886Z,90.50
2018-09-12T22:33:37.315Z,90.60
2018-09-12T22:36:05.741Z,90.60
2018-09-12T22:38:34.201Z,90.20
2018-09-12T22:41:02.598Z,90.60
2018-09-12T22:43:31.067Z,91.20
2018-09-12T22:45:59.484Z,91.40
2018-09-12T22:48:27.955Z,92.00
2018-09-12T22:50:56.380Z,92.50
2018-09-12T22:53:24.806Z,92.90
2018-09-12T22:55:53.242Z,92.90
2018-09-12T22:58:21.754Z,93.10
2018-09-12T23:00:50.196Z,93.10
2018-09-12T23:03:18.639Z,93.20
2018-09-12T23:05:47.053Z,93.10
2018-09-12T23:08:15.490Z,93.30
2018-09-12T23:10:43.928Z,93.20
2018-09-12T23:13:12.366Z,93.20
2018-09-12T23:15:40.810Z,93.40
2018-09-12T23:18:09.227Z,93.70
2018-09-12T23:20:37.876Z,94.10
2018-09-12T23:23:06.659Z,94.70
2018-09-12T23:25:35.103Z,95.10
2018-09-12T23:28:03.535Z,95.20
2018-09-12T23:30:31.974Z,95.60
2018-09-12T23:33:00.395Z,95.50
2018-09-12T23:35:28.827Z,95.60
2018-09-12T23:37:57.280Z,95.80
2018-09-12T23:40:25.740Z,96.00
2018-09-12T23:42:54.167Z,96.10
2018-09-12T23:45:22.600Z,95.90
2018-09-12T23:47:51.035Z,95.60
2018-09-12T23:50:19.487Z,95.60
2018-09-12T23:52:47.922Z,95.70
2018-09-12T23:55:16.382Z,95.60
2018-09-12T23:57:44.821Z,95.40
